Time;durP1;ratioP1;P1;durP2;ratioP2;P2;SDS_P1;SDS_P2;PMS_P1;PMS_P2;Temp;Humidity;BMP_temperature;BMP_pressure;BME280_temperature;BME280_humidity;BME280_pressure;Samples;Min_cycle;Max_cycle;Signal;HPM_P1;HPM_P2
2023/01/08 00:01:58;;;;;;;7.07;5.47;;;7.60;99.90;;;;;;6223580;23;20216;-84
2023/01/08 00:04:23;;;;;;;6.47;5.07;;;7.60;99.90;;;;;;6221649;23;20443;-84
2023/01/08 00:06:49;;;;;;;10.30;5.07;;;7.60;99.90;;;;;;6222634;23;20215;-82
2023/01/08 00:09:14;;;;;;;6.43;5.13;;;7.60;99.90;;;;;;6221749;23;20161;-84
2023/01/08 00:11:40;;;;;;;12.23;5.70;;;7.50;99.90;;;;;;6222055;23;20161;-83
2023/01/08 00:14:06;;;;;;;6.13;4.70;;;7.50;99.90;;;;;;6221425;23;20268;-80
2023/01/08 00:16:31;;;;;;;9.80;5.57;;;7.50;99.90;;;;;;6221619;23;20158;-81
2023/01/08 00:18:57;;;;;;;8.83;5.10;;;7.50;99.90;;;;;;6222039;23;20587;-84
2023/01/08 00:21:22;;;;;;;7.33;4.30;;;7.50;99.90;;;;;;6222453;23;20181;-82
2023/01/08 00:23:48;;;;;;;8.13;5.67;;;7.40;99.90;;;;;;6221590;23;20173;-81
2023/01/08 00:26:14;;;;;;;6.83;3.83;;;7.40;99.90;;;;;;6225335;23;20126;-82
2023/01/08 00:28:40;;;;;;;9.77;5.50;;;7.40;99.90;;;;;;6223248;23;20384;-84
2023/01/08 00:31:07;;;;;;;6.85;5.20;;;7.50;99.90;;;;;;6221783;23;20200;-84
2023/01/08 00:33:34;;;;;;;8.57;4.93;;;7.60;99.90;;;;;;6221894;23;20172;-84
2023/01/08 00:36:00;;;;;;;8.15;5.20;;;7.70;99.90;;;;;;6222995;23;20157;-83
2023/01/08 00:38:26;;;;;;;11.57;5.10;;;7.70;99.90;;;;;;6223848;23;20163;-83
2023/01/08 00:40:52;;;;;;;4.93;3.90;;;7.70;99.90;;;;;;6223860;23;20408;-83
2023/01/08 00:43:17;;;;;;;8.10;4.80;;;7.80;99.90;;;;;;6222781;23;20240;-82
2023/01/08 00:45:43;;;;;;;5.23;4.03;;;7.70;99.90;;;;;;6224957;23;20557;-81
2023/01/08 00:48:09;;;;;;;6.40;4.50;;;7.70;99.90;;;;;;6225129;23;20156;-80
2023/01/08 00:50:35;;;;;;;4.82;4.10;;;7.70;99.90;;;;;;6222902;23;20149;-85
2023/01/08 00:53:02;;;;;;;4.87;3.00;;;7.70;99.90;;;;;;6221932;23;20157;-82
2023/01/08 00:55:28;;;;;;;4.57;3.80;;;7.50;99.90;;;;;;6222338;23;20153;-83
2023/01/08 00:57:53;;;;;;;6.80;4.60;;;7.40;99.90;;;;;;6222550;23;20666;-83
2023/01/08 01:00:19;;;;;;;5.33;4.47;;;7.30;99.90;;;;;;6223509;23;20403;-82
2023/01/08 01:02:45;;;;;;;5.87;4.20;;;7.40;99.90;;;;;;6223452;23;20149;-83
2023/01/08 01:05:14;;;;;;;6.50;3.57;;;7.30;99.90;;;;;;6222222;22;20641;-84
2023/01/08 01:07:40;;;;;;;9.75;4.65;;;7.20;99.90;;;;;;6220445;23;20182;-82
2023/01/08 01:10:06;;;;;;;8.40;4.38;;;7.20;99.90;;;;;;6222588;23;20327;-81
2023/01/08 01:12:32;;;;;;;11.73;4.55;;;7.20;99.90;;;;;;6221924;23;20161;-82
2023/01/08 01:14:58;;;;;;;9.87;5.40;;;7.20;99.90;;;;;;6222446;23;20173;-85
2023/01/08 01:17:23;;;;;;;7.60;5.50;;;7.30;99.90;;;;;;6223104;23;20232;-82
2023/01/08 01:19:49;;;;;;;13.43;5.17;;;7.30;99.90;;;;;;6223378;23;20200;-82
2023/01/08 01:22:14;;;;;;;6.80;4.30;;;7.20;99.90;;;;;;6223228;23;20183;-81
2023/01/08 01:24:40;;;;;;;9.47;5.90;;;7.10;99.90;;;;;;6221843;23;20149;-84
2023/01/08 01:27:06;;;;;;;9.40;5.33;;;7.10;99.90;;;;;;6221959;23;20172;-82
2023/01/08 01:29:31;;;;;;;8.57;5.40;;;7.10;99.90;;;;;;6221089;23;20473;-81
2023/01/08 01:31:57;;;;;;;6.17;4.53;;;7.10;99.90;;;;;;6218979;23;20239;-83
2023/01/08 01:34:22;;;;;;;7.60;3.37;;;7.30;99.90;;;;;;6220105;23;20180;-82
2023/01/08 01:36:48;;;;;;;5.13;4.10;;;7.50;99.90;;;;;;6220980;23;20161;-82
2023/01/08 01:39:13;;;;;;;6.20;4.47;;;7.50;99.90;;;;;;6220648;23;20153;-86
2023/01/08 01:41:44;;;;;;;3.70;2.83;;;7.50;99.90;;;;;;6220646;23;20739;-82
2023/01/08 01:44:31;;;;;;;6.00;3.58;;;7.60;99.90;;;;;;6220292;23;20551;-82
2023/01/08 01:46:57;;;;;;;5.05;3.72;;;7.60;99.90;;;;;;6221177;23;20164;-79
2023/01/08 01:49:23;;;;;;;10.17;4.60;;;7.60;99.90;;;;;;6219133;23;20152;-81
2023/01/08 01:51:52;;;;;;;7.10;2.93;;;7.60;99.90;;;;;;6219962;23;20179;-79
2023/01/08 01:54:18;;;;;;;5.45;3.75;;;7.60;99.90;;;;;;6219179;23;20172;-82
2023/01/08 01:56:44;;;;;;;3.97;3.40;;;7.70;99.90;;;;;;6220552;23;20145;-80
2023/01/08 01:59:11;;;;;;;3.70;2.70;;;7.70;99.90;;;;;;6220967;23;20149;-80
2023/01/08 02:01:38;;;;;;;4.30;3.00;;;7.70;99.90;;;;;;6220482;23;20228;-82
2023/01/08 02:04:05;;;;;;;3.63;2.83;;;7.80;99.90;;;;;;6220549;23;20173;-79
2023/01/08 02:07:00;;;;;;;4.95;3.83;;;7.80;99.90;;;;;;6217624;23;20153;-82
2023/01/08 02:09:48;;;;;;;4.05;3.22;;;7.70;99.90;;;;;;6140752;23;20158;-81
2023/01/08 02:12:22;;;;;;;9.02;4.65;;;7.70;99.90;;;;;;6217778;23;20149;-82
2023/01/08 02:15:03;;;;;;;4.72;3.88;;;7.70;99.90;;;;;;6218018;23;20165;-83
2023/01/08 02:17:45;;;;;;;7.50;4.00;;;7.60;99.90;;;;;;6218389;23;20155;-79
2023/01/08 02:20:22;;;;;;;7.93;4.53;;;7.50;99.90;;;;;;6216552;23;20247;-82
2023/01/08 02:22:54;;;;;;;5.55;4.20;;;7.50;99.90;;;;;;6216428;23;20146;-79
2023/01/08 02:25:38;;;;;;;6.55;4.72;;;7.40;99.90;;;;;;6216451;23;20153;-81
2023/01/08 02:28:11;;;;;;;7.57;5.13;;;7.30;99.90;;;;;;6216366;23;20226;-79
2023/01/08 02:30:37;;;;;;;4.03;3.30;;;7.30;99.90;;;;;;6218262;23;20149;-79
2023/01/08 02:33:18;;;;;;;7.60;4.90;;;7.30;99.90;;;;;;6217644;23;20153;-80
2023/01/08 02:35:52;;;;;;;8.07;5.20;;;7.30;99.90;;;;;;6217388;23;20459;-81
2023/01/08 02:38:18;;;;;;;6.70;4.30;;;7.40;99.90;;;;;;6217739;23;20144;-79
2023/01/08 02:41:07;;;;;;;6.33;3.93;;;7.40;99.90;;;;;;6215705;23;20284;-79
2023/01/08 02:43:48;;;;;;;4.00;3.47;;;7.40;99.90;;;;;;6216274;23;20173;-81
2023/01/08 02:46:22;;;;;;;6.03;4.20;;;7.50;99.90;;;;;;6215771;23;20256;-81
2023/01/08 02:48:55;;;;;;;6.90;4.78;;;7.50;99.90;;;;;;6215965;23;20133;-82
2023/01/08 02:51:35;;;;;;;5.93;3.97;;;7.50;99.90;;;;;;6217570;23;20150;-82
2023/01/08 02:54:05;;;;;;;6.25;4.65;;;7.60;99.90;;;;;;6215260;23;20191;-82
2023/01/08 02:56:41;;;;;;;5.68;3.92;;;7.60;99.90;;;;;;6216693;23;20140;-82
2023/01/08 02:59:10;;;;;;;6.13;4.15;;;7.70;99.90;;;;;;6216513;23;20603;-80
2023/01/08 03:01:36;;;;;;;6.07;4.15;;;7.70;99.90;;;;;;6218117;23;20502;-79
2023/01/08 03:04:06;;;;;;;8.45;3.63;;;7.70;99.90;;;;;;6217440;23;20247;-80
2023/01/08 03:06:32;;;;;;;4.80;2.70;;;7.80;99.90;;;;;;6217184;23;20648;-81
2023/01/08 03:08:59;;;;;;;6.10;4.50;;;7.80;99.90;;;;;;6217902;23;20156;-83
2023/01/08 03:11:30;;;;;;;3.88;3.35;;;7.90;99.90;;;;;;6220074;23;20372;-81
2023/01/08 03:14:09;;;;;;;6.80;3.85;;;7.90;99.90;;;;;;6218945;23;20161;-80
2023/01/08 03:16:38;;;;;;;4.68;2.83;;;7.90;99.90;;;;;;6216949;23;20133;-80
2023/01/08 03:19:11;;;;;;;5.30;3.20;;;7.90;99.90;;;;;;6218834;23;20149;-81
2023/01/08 03:21:38;;;;;;;5.57;3.55;;;8.00;99.90;;;;;;6217130;23;20165;-80
2023/01/08 03:24:05;;;;;;;3.30;3.00;;;8.00;99.90;;;;;;6218925;23;20167;-78
2023/01/08 03:26:33;;;;;;;4.55;3.28;;;8.10;99.90;;;;;;6217008;23;20153;-82
2023/01/08 03:29:00;;;;;;;5.90;3.95;;;8.10;99.90;;;;;;6221290;23;20153;-84
2023/01/08 03:31:28;;;;;;;6.15;3.42;;;8.20;99.90;;;;;;6217243;23;20611;-83
2023/01/08 03:33:54;;;;;;;3.72;3.05;;;8.20;99.90;;;;;;6221203;23;20243;-82
2023/01/08 03:36:26;;;;;;;4.65;2.50;;;8.20;99.90;;;;;;6218934;23;20220;-83
2023/01/08 03:39:02;;;;;;;8.63;2.80;;;8.20;99.90;;;;;;6217861;23;20228;-80
2023/01/08 03:41:31;;;;;;;4.03;3.13;;;8.20;99.90;;;;;;6218430;23;20165;-80
2023/01/08 03:43:56;;;;;;;3.25;2.20;;;8.20;99.90;;;;;;6216223;23;20192;-79
2023/01/08 03:46:31;;;;;;;5.00;3.23;;;8.20;99.90;;;;;;6218479;23;20145;-81
2023/01/08 03:48:58;;;;;;;4.45;2.78;;;8.20;99.90;;;;;;6216150;23;20137;-81
2023/01/08 03:51:24;;;;;;;5.75;3.10;;;8.20;99.90;;;;;;6218170;23;20177;-83
2023/01/08 03:53:57;;;;;;;8.00;3.33;;;8.30;99.90;;;;;;6218695;23;20686;-81
2023/01/08 03:56:22;;;;;;;3.13;2.83;;;8.30;99.90;;;;;;6215936;23;20894;-83
2023/01/08 03:58:48;;;;;;;9.00;4.40;;;8.30;99.90;;;;;;6219838;23;20149;-80
2023/01/08 04:01:13;;;;;;;3.17;2.57;;;8.30;99.90;;;;;;6217793;23;20172;-81
2023/01/08 04:03:39;;;;;;;4.17;2.97;;;8.20;99.90;;;;;;6219292;23;20166;-81
2023/01/08 04:06:04;;;;;;;3.87;2.70;;;8.20;99.90;;;;;;6220499;23;20524;-82
2023/01/08 04:08:30;;;;;;;5.27;2.90;;;8.30;99.90;;;;;;6219012;23;20157;-80
2023/01/08 04:10:55;;;;;;;3.80;2.67;;;8.30;99.90;;;;;;6219738;23;20416;-83
2023/01/08 04:13:21;;;;;;;4.77;3.10;;;8.20;99.90;;;;;;6218843;23;20173;-80
2023/01/08 04:15:50;;;;;;;7.47;3.53;;;8.20;99.90;;;;;;6215645;23;20152;-81
2023/01/08 04:18:17;;;;;;;6.53;4.03;;;8.20;99.90;;;;;;6221191;23;20145;-81
2023/01/08 04:20:46;;;;;;;5.03;3.50;;;8.20;99.90;;;;;;6218922;23;20173;-81
2023/01/08 04:23:12;;;;;;;5.90;3.65;;;8.20;99.90;;;;;;6220015;23;20187;-82
2023/01/08 04:25:38;;;;;;;5.67;3.67;;;8.20;99.90;;;;;;6218921;23;20142;-80
2023/01/08 04:28:03;;;;;;;3.23;2.83;;;8.10;99.90;;;;;;6219962;23;20208;-80
2023/01/08 04:30:29;;;;;;;5.63;3.50;;;8.00;99.90;;;;;;6217230;23;20165;-81
2023/01/08 04:32:55;;;;;;;4.80;3.00;;;7.90;99.90;;;;;;6218868;23;20153;-82
2023/01/08 04:35:21;;;;;;;3.50;3.20;;;7.90;99.90;;;;;;6217287;23;20165;-79
2023/01/08 04:37:47;;;;;;;5.30;3.53;;;7.90;99.90;;;;;;6217088;23;20143;-81
2023/01/08 04:40:12;;;;;;;8.30;3.10;;;7.90;99.90;;;;;;6218581;23;20675;-83
2023/01/08 04:42:38;;;;;;;9.87;4.43;;;7.90;99.90;;;;;;6218221;23;20452;-83
2023/01/08 04:45:05;;;;;;;6.33;4.10;;;7.80;99.90;;;;;;6216959;23;20195;-82
2023/01/08 04:47:30;;;;;;;6.13;4.40;;;7.90;99.90;;;;;;6218948;23;20496;-82
2023/01/08 04:49:56;;;;;;;4.10;3.03;;;7.90;99.90;;;;;;6217175;23;20181;-83
2023/01/08 04:52:21;;;;;;;5.23;3.87;;;7.80;99.90;;;;;;6216878;23;20150;-83
2023/01/08 04:54:47;;;;;;;3.47;2.57;;;7.80;99.90;;;;;;6219320;23;20649;-84
2023/01/08 04:57:12;;;;;;;4.07;2.73;;;7.80;99.90;;;;;;6216323;23;20177;-83
2023/01/08 04:59:38;;;;;;;3.33;2.47;;;7.80;99.90;;;;;;6218956;23;20149;-81
2023/01/08 05:02:03;;;;;;;3.70;2.73;;;7.90;99.90;;;;;;6217562;23;20173;-79
2023/01/08 05:04:29;;;;;;;7.63;2.90;;;7.90;99.90;;;;;;6217485;23;20173;-77
2023/01/08 05:06:54;;;;;;;4.27;2.80;;;8.00;99.90;;;;;;6216175;23;20157;-79
2023/01/08 05:09:20;;;;;;;3.80;2.53;;;8.10;99.90;;;;;;6217293;23;20231;-80
2023/01/08 05:11:45;;;;;;;5.20;4.70;;;8.20;99.90;;;;;;6217874;23;20657;-79
2023/01/08 05:14:11;;;;;;;2.80;2.50;;;8.30;99.90;;;;;;6216657;23;20172;-81
2023/01/08 05:16:36;;;;;;;2.60;1.90;;;8.30;99.90;;;;;;6212185;23;20164;-79
2023/01/08 05:19:02;;;;;;;3.07;2.77;;;8.30;99.90;;;;;;6217223;23;20149;-79
2023/01/08 05:21:28;;;;;;;6.47;3.53;;;8.30;99.90;;;;;;6216644;23;20574;-80
2023/01/08 05:23:53;;;;;;;5.47;3.33;;;8.40;99.90;;;;;;6216731;23;20661;-80
2023/01/08 05:26:19;;;;;;;5.10;2.90;;;8.40;99.90;;;;;;6215673;23;20161;-77
2023/01/08 05:28:44;;;;;;;3.10;2.80;;;8.50;99.90;;;;;;6215785;23;20154;-81
2023/01/08 05:31:10;;;;;;;6.73;2.60;;;8.60;99.90;;;;;;6218344;23;20383;-82
2023/01/08 05:33:37;;;;;;;2.40;2.20;;;8.60;99.90;;;;;;6216653;23;20173;-83
2023/01/08 05:36:07;;;;;;;3.78;2.33;;;8.60;99.90;;;;;;6217620;23;20156;-82
2023/01/08 05:38:33;;;;;;;3.25;2.28;;;8.70;99.90;;;;;;6217888;23;20153;-80
2023/01/08 05:40:58;;;;;;;4.43;2.40;;;8.70;99.90;;;;;;6214636;23;20181;-84
2023/01/08 05:43:24;;;;;;;6.10;2.80;;;8.70;99.90;;;;;;6217646;23;20181;-81
2023/01/08 05:45:49;;;;;;;6.67;2.57;;;8.80;99.90;;;;;;6217657;23;20134;-82
2023/01/08 05:48:15;;;;;;;3.30;1.93;;;8.70;99.90;;;;;;6219317;23;20173;-82
2023/01/08 05:50:40;;;;;;;2.43;2.23;;;8.80;99.90;;;;;;6219523;23;20212;-83
2023/01/08 05:53:07;;;;;;;2.30;1.93;;;8.70;99.90;;;;;;6217801;23;20801;-84
2023/01/08 05:55:33;;;;;;;8.07;1.98;;;8.70;99.90;;;;;;6218857;23;20211;-81
2023/01/08 05:58:04;;;;;;;5.90;1.92;;;8.70;99.90;;;;;;6216724;23;20243;-81
2023/01/08 06:00:30;;;;;;;3.47;2.53;;;8.70;99.90;;;;;;6217383;23;20176;-82
2023/01/08 06:02:56;;;;;;;2.88;2.13;;;8.70;99.90;;;;;;6216377;23;20153;-80
2023/01/08 06:05:22;;;;;;;6.47;3.20;;;8.70;99.90;;;;;;6219484;23;20163;-82
2023/01/08 06:07:47;;;;;;;4.10;2.20;;;8.70;99.90;;;;;;6217626;23;20585;-83
2023/01/08 06:10:13;;;;;;;6.50;2.90;;;8.60;99.90;;;;;;6218409;23;20142;-80
2023/01/08 06:12:38;;;;;;;3.30;2.50;;;8.50;99.90;;;;;;6217770;23;20157;-79
2023/01/08 06:15:04;;;;;;;3.83;2.47;;;8.50;99.90;;;;;;6214933;23;20223;-82
2023/01/08 06:17:30;;;;;;;2.90;2.13;;;8.50;99.90;;;;;;6219152;23;20141;-81
2023/01/08 06:19:56;;;;;;;3.37;2.90;;;8.50;99.90;;;;;;6219345;23;20149;-82
2023/01/08 06:22:21;;;;;;;3.33;2.40;;;8.60;99.90;;;;;;6217351;23;20411;-83
2023/01/08 06:24:47;;;;;;;6.13;2.57;;;8.60;99.90;;;;;;6218648;23;20256;-82
2023/01/08 06:27:12;;;;;;;4.77;2.60;;;8.60;99.90;;;;;;6217492;23;20149;-80
2023/01/08 06:29:38;;;;;;;2.50;2.07;;;8.60;99.90;;;;;;6218291;23;20149;-82
2023/01/08 06:32:04;;;;;;;3.20;2.07;;;8.60;99.90;;;;;;6218580;23;20149;-82
2023/01/08 06:34:29;;;;;;;3.30;1.90;;;8.70;99.90;;;;;;6218743;23;20169;-80
2023/01/08 06:36:55;;;;;;;5.53;1.97;;;8.60;99.90;;;;;;6216029;23;20157;-81
2023/01/08 06:39:20;;;;;;;2.23;2.03;;;8.60;99.90;;;;;;6218030;23;20203;-82
2023/01/08 06:41:46;;;;;;;3.10;1.90;;;8.70;99.90;;;;;;6218391;23;20168;-81
2023/01/08 06:44:12;;;;;;;1.60;1.50;;;8.60;99.90;;;;;;6218350;23;20185;-81
2023/01/08 06:46:39;;;;;;;2.20;1.40;;;8.60;99.90;;;;;;6215252;23;20172;-81
2023/01/08 06:49:05;;;;;;;1.80;1.55;;;8.70;99.90;;;;;;6215093;23;20396;-82
2023/01/08 06:51:31;;;;;;;1.35;1.20;;;8.70;99.90;;;;;;6218462;23;20223;-83
2023/01/08 06:53:56;;;;;;;1.67;1.50;;;8.60;99.90;;;;;;6218546;23;20749;-79
2023/01/08 06:56:22;;;;;;;3.67;1.30;;;8.70;99.90;;;;;;6222185;23;20172;-81
2023/01/08 06:58:48;;;;;;;1.23;1.13;;;8.70;99.90;;;;;;6215586;23;20188;-80
2023/01/08 07:01:15;;;;;;;1.33;0.80;;;8.80;99.90;;;;;;6217347;23;20173;-82
2023/01/08 07:03:41;;;;;;;2.90;1.38;;;8.70;99.90;;;;;;6217512;23;20317;-80
2023/01/08 07:06:11;;;;;;;2.40;1.93;;;8.80;99.90;;;;;;6214936;23;20176;-81
2023/01/08 07:08:37;;;;;;;2.22;1.80;;;8.80;99.90;;;;;;6215557;23;20487;-82
2023/01/08 07:11:02;;;;;;;4.17;2.40;;;8.90;99.90;;;;;;6215722;23;20209;-83
2023/01/08 07:13:28;;;;;;;1.80;1.27;;;8.90;99.90;;;;;;6215560;23;20199;-80
2023/01/08 07:15:54;;;;;;;3.40;1.70;;;8.90;99.90;;;;;;6215265;23;20153;-79
2023/01/08 07:18:20;;;;;;;3.13;1.55;;;8.90;99.90;;;;;;6215656;23;20191;-81
2023/01/08 07:20:47;;;;;;;1.33;1.23;;;8.90;99.90;;;;;;6216198;23;20173;-81
2023/01/08 07:23:13;;;;;;;2.33;1.73;;;8.90;99.90;;;;;;6213809;23;20981;-81
2023/01/08 07:25:39;;;;;;;4.10;1.57;;;8.90;99.90;;;;;;6215507;23;20149;-78
2023/01/08 07:28:05;;;;;;;1.17;0.90;;;8.90;99.90;;;;;;6216148;23;20164;-82
2023/01/08 07:30:31;;;;;;;3.67;1.38;;;8.90;99.90;;;;;;6216656;23;20373;-79
2023/01/08 07:33:00;;;;;;;1.63;1.10;;;8.90;99.90;;;;;;6216195;23;20156;-81
2023/01/08 07:35:26;;;;;;;1.10;1.10;;;8.90;99.90;;;;;;6216665;23;20176;-82
2023/01/08 07:37:51;;;;;;;1.50;0.90;;;8.80;99.90;;;;;;6214178;23;20491;-82
2023/01/08 07:40:17;;;;;;;1.20;1.10;;;8.80;99.90;;;;;;6214574;23;20381;-81
2023/01/08 07:42:42;;;;;;;1.10;1.00;;;8.70;99.90;;;;;;6214926;23;20169;-82
2023/01/08 07:45:08;;;;;;;0.90;0.90;;;8.70;99.90;;;;;;6215493;23;20627;-84
2023/01/08 07:47:33;;;;;;;3.67;2.67;;;8.60;99.90;;;;;;6214900;23;20263;-84
2023/01/08 07:49:59;;;;;;;1.03;0.90;;;8.60;99.90;;;;;;6216383;23;20149;-84
2023/01/08 07:52:24;;;;;;;1.97;1.20;;;8.60;99.90;;;;;;6214932;23;20157;-87
2023/01/08 07:54:50;;;;;;;1.20;1.10;;;8.60;99.90;;;;;;6217217;23;20173;-85
2023/01/08 07:57:15;;;;;;;1.17;1.07;;;8.60;99.90;;;;;;6216407;23;20160;-85
2023/01/08 07:59:41;;;;;;;1.63;1.10;;;8.60;99.90;;;;;;6219699;23;20699;-84
2023/01/08 08:02:09;;;;;;;2.80;2.60;;;8.60;99.90;;;;;;6219528;23;20207;-85
2023/01/08 08:04:34;;;;;;;1.73;1.00;;;8.70;99.90;;;;;;6218442;23;20173;-85
2023/01/08 08:07:00;;;;;;;1.57;1.30;;;8.70;99.90;;;;;;6220387;23;20187;-85
2023/01/08 08:09:25;;;;;;;1.50;1.13;;;8.70;99.90;;;;;;6221081;23;20160;-85
2023/01/08 08:11:51;;;;;;;1.90;1.37;;;8.70;99.90;;;;;;6222656;23;20160;-85
2023/01/08 08:14:16;;;;;;;1.27;1.07;;;8.70;99.90;;;;;;6222203;23;20211;-85
2023/01/08 08:16:42;;;;;;;1.00;0.90;;;8.70;99.90;;;;;;6221059;23;20153;-85
2023/01/08 08:19:09;;;;;;;2.13;1.23;;;8.70;99.90;;;;;;6220710;23;20141;-83
2023/01/08 08:21:34;;;;;;;5.15;1.30;;;8.70;99.90;;;;;;6218028;23;20231;-82
2023/01/08 08:24:00;;;;;;;1.13;1.00;;;8.60;99.90;;;;;;6218620;23;20165;-84
2023/01/08 08:26:26;;;;;;;1.67;1.30;;;8.60;99.90;;;;;;6217914;23;20160;-84
2023/01/08 08:28:51;;;;;;;1.50;1.07;;;8.70;99.90;;;;;;6219247;23;20149;-82
2023/01/08 08:31:17;;;;;;;0.93;0.83;;;8.70;99.90;;;;;;6213034;23;20157;-82
2023/01/08 08:33:42;;;;;;;4.00;1.20;;;8.70;99.90;;;;;;6217972;23;20188;-83
2023/01/08 08:36:08;;;;;;;1.63;0.97;;;8.70;99.90;;;;;;6216673;23;20222;-86
2023/01/08 08:38:35;;;;;;;1.37;1.10;;;8.80;99.90;;;;;;6217824;23;20187;-82
2023/01/08 08:41:00;;;;;;;1.70;1.00;;;8.80;99.90;;;;;;6223765;23;20637;-84
2023/01/08 08:43:26;;;;;;;1.77;1.13;;;8.70;99.90;;;;;;6223495;23;20173;-82
2023/01/08 08:45:54;;;;;;;1.10;1.00;;;8.70;99.90;;;;;;6221921;23;20149;-83
2023/01/08 08:48:20;;;;;;;2.80;2.35;;;8.60;99.90;;;;;;6222520;23;20587;-84
2023/01/08 08:50:45;;;;;;;1.90;1.33;;;8.70;99.90;;;;;;6223268;23;20145;-85
2023/01/08 08:53:11;;;;;;;1.23;1.13;;;8.70;99.90;;;;;;6220188;23;20200;-84
2023/01/08 08:55:36;;;;;;;2.37;1.07;;;8.70;99.90;;;;;;6220486;23;20161;-83
2023/01/08 08:58:05;;;;;;;0.90;0.80;;;8.80;99.90;;;;;;6217950;23;20256;-84
2023/01/08 09:00:31;;;;;;;1.88;1.70;;;8.90;99.90;;;;;;6220539;23;20157;-85
2023/01/08 09:02:56;;;;;;;2.07;1.60;;;8.90;99.90;;;;;;6219756;23;20165;-82
2023/01/08 09:05:22;;;;;;;1.43;1.10;;;8.90;99.90;;;;;;6220920;23;20152;-83
2023/01/08 09:07:47;;;;;;;0.90;0.63;;;9.00;99.90;;;;;;6218898;23;20169;-84
2023/01/08 09:10:13;;;;;;;1.90;1.07;;;9.10;99.90;;;;;;6219836;23;20164;-83
2023/01/08 09:12:38;;;;;;;1.57;1.30;;;9.10;99.90;;;;;;6218384;23;20154;-84
2023/01/08 09:15:04;;;;;;;1.70;1.00;;;9.10;99.90;;;;;;6219107;23;20169;-84
2023/01/08 09:17:30;;;;;;;2.03;1.88;;;9.10;99.90;;;;;;6218656;23;20163;-83
2023/01/08 09:19:55;;;;;;;1.00;0.70;;;9.10;99.90;;;;;;6218904;23;20252;-85
2023/01/08 09:22:21;;;;;;;0.87;0.80;;;9.10;99.90;;;;;;6218386;23;20187;-84
2023/01/08 09:24:46;;;;;;;1.70;0.93;;;9.00;99.90;;;;;;6217026;23;20256;-83
2023/01/08 09:27:12;;;;;;;2.33;1.53;;;9.00;99.90;;;;;;6220799;23;20145;-85
2023/01/08 09:29:38;;;;;;;3.92;2.65;;;9.00;99.90;;;;;;6216723;23;20551;-84
2023/01/08 09:32:07;;;;;;;4.93;2.60;;;9.10;99.90;;;;;;6218271;23;20157;-84
2023/01/08 09:34:34;;;;;;;3.30;1.45;;;9.20;99.90;;;;;;6219841;23;20188;-84
2023/01/08 09:37:00;;;;;;;1.00;0.90;;;9.10;99.90;;;;;;6220115;23;20180;-84
2023/01/08 09:39:26;;;;;;;1.67;1.20;;;9.20;99.90;;;;;;6221874;23;20157;-83
2023/01/08 09:41:54;;;;;;;1.27;0.67;;;9.20;99.90;;;;;;6220638;23;20180;-84
2023/01/08 09:44:27;;;;;;;1.15;0.70;;;9.20;99.90;;;;;;6220885;23;20412;-83
2023/01/08 09:46:54;;;;;;;1.05;0.68;;;9.30;99.90;;;;;;6217491;23;20559;-83
2023/01/08 09:49:41;;;;;;;1.10;0.90;;;9.30;99.90;;;;;;6215327;23;20259;-84
2023/01/08 09:52:12;;;;;;;2.47;0.90;;;9.40;99.90;;;;;;6214663;23;20145;-83
2023/01/08 09:54:39;;;;;;;0.80;0.60;;;9.50;99.90;;;;;;6217929;23;20641;-84
2023/01/08 09:57:05;;;;;;;1.45;0.68;;;9.30;99.90;;;;;;6218617;23;20579;-84
2023/01/08 09:59:31;;;;;;;0.82;0.82;;;9.40;99.90;;;;;;6217262;23;20164;-84
2023/01/08 10:01:57;;;;;;;3.22;0.82;;;9.40;99.90;;;;;;6218323;23;20520;-82
2023/01/08 10:04:27;;;;;;;0.70;0.63;;;9.30;99.90;;;;;;6218910;23;20169;-83
2023/01/08 10:07:04;;;;;;;0.93;0.70;;;9.20;99.90;;;;;;6216611;23;20167;-83
2023/01/08 10:09:32;;;;;;;0.90;0.70;;;9.10;99.90;;;;;;6215571;23;20126;-84
2023/01/08 10:12:00;;;;;;;0.95;0.70;;;9.20;99.90;;;;;;6221738;23;20157;-85
2023/01/08 10:14:33;;;;;;;1.60;0.82;;;9.20;99.90;;;;;;6221454;23;20173;-84
2023/01/08 10:17:15;;;;;;;1.30;1.13;;;9.20;99.90;;;;;;6217738;23;20192;-85
2023/01/08 10:19:41;;;;;;;1.13;0.70;;;9.30;99.90;;;;;;6214769;23;20145;-83
2023/01/08 10:22:17;;;;;;;1.57;0.80;;;9.20;99.90;;;;;;6217800;23;20206;-83
2023/01/08 10:24:43;;;;;;;1.35;0.85;;;9.20;99.90;;;;;;6217110;23;20208;-82
2023/01/08 10:27:15;;;;;;;1.27;1.00;;;9.30;99.90;;;;;;6219223;23;20165;-84
2023/01/08 10:29:41;;;;;;;0.85;0.70;;;9.40;99.90;;;;;;6219608;23;20210;-84
2023/01/08 10:32:19;;;;;;;0.93;0.70;;;9.30;99.90;;;;;;6217495;23;20236;-87
2023/01/08 10:34:46;;;;;;;1.05;0.68;;;9.20;99.90;;;;;;6217160;23;20184;-82
2023/01/08 10:37:16;;;;;;;4.30;0.88;;;9.30;99.90;;;;;;6218197;23;20475;-83
2023/01/08 10:39:46;;;;;;;1.25;1.15;;;9.20;99.90;;;;;;6216679;23;20172;-84
2023/01/08 10:42:13;;;;;;;1.80;1.30;;;9.20;99.90;;;;;;6217350;23;20217;-83
2023/01/08 10:44:58;;;;;;;0.93;0.93;;;9.30;99.90;;;;;;6216016;23;20683;-83
2023/01/08 10:47:24;;;;;;;1.30;0.90;;;9.30;99.90;;;;;;6219307;23;20161;-84
2023/01/08 10:49:50;;;;;;;0.80;0.70;;;9.40;99.90;;;;;;6216265;23;20600;-83
2023/01/08 10:52:31;;;;;;;1.17;0.83;;;9.30;99.90;;;;;;6216229;23;20161;-85
2023/01/08 10:55:09;;;;;;;0.80;0.80;;;9.40;99.90;;;;;;6215270;23;20181;-86
2023/01/08 10:57:34;;;;;;;1.00;0.90;;;9.50;99.90;;;;;;6216196;23;20682;-84
2023/01/08 11:00:00;;;;;;;0.50;0.47;;;9.60;99.90;;;;;;6216752;23;20157;-84
2023/01/08 11:02:37;;;;;;;3.30;0.90;;;9.50;99.90;;;;;;6216240;23;20177;-84
2023/01/08 11:05:06;;;;;;;6.10;3.70;;;9.50;99.90;;;;;;6212340;23;20468;-81
2023/01/08 11:07:34;;;;;;;1.63;1.52;;;9.70;99.90;;;;;;6218269;23;20153;-82
2023/01/08 11:10:00;;;;;;;3.17;2.35;;;9.80;99.90;;;;;;6221256;23;20145;-83
2023/01/08 11:12:38;;;;;;;1.30;1.10;;;10.00;99.90;;;;;;6219127;23;20154;-83
2023/01/08 11:15:07;;;;;;;4.32;1.13;;;10.30;99.90;;;;;;6218188;23;20177;-84
2023/01/08 11:17:33;;;;;;;1.40;1.15;;;10.40;99.90;;;;;;6220844;23;20165;-84
2023/01/08 11:20:19;;;;;;;2.20;1.20;;;10.60;99.90;;;;;;6221584;23;20165;-84
2023/01/08 11:22:45;;;;;;;1.52;1.20;;;10.70;99.90;;;;;;6217361;23;20172;-83
2023/01/08 11:25:23;;;;;;;1.63;1.53;;;10.70;99.90;;;;;;6218657;23;20248;-84
2023/01/08 11:27:50;;;;;;;1.23;0.88;;;10.40;99.90;;;;;;6220752;23;20129;-83
2023/01/08 11:30:22;;;;;;;2.33;1.40;;;10.30;99.90;;;;;;6218778;23;20483;-83
2023/01/08 11:33:12;;;;;;;2.88;1.45;;;10.40;99.90;;;;;;6221907;23;20164;-83
2023/01/08 11:35:49;;;;;;;1.73;1.60;;;10.30;99.90;;;;;;6224204;23;20133;-85
2023/01/08 11:38:15;;;;;;;1.90;1.42;;;10.00;99.90;;;;;;6223831;23;20145;-82
2023/01/08 11:40:50;;;;;;;1.45;1.35;;;10.10;99.90;;;;;;6224266;23;20220;-83
2023/01/08 11:43:25;;;;;;;0.90;0.90;;;10.10;99.90;;;;;;6223385;23;20228;-84
2023/01/08 11:46:04;;;;;;;1.13;1.00;;;9.90;99.90;;;;;;6221850;23;20244;-85
2023/01/08 11:48:42;;;;;;;2.10;1.33;;;9.70;99.90;;;;;;6221500;23;20137;-84
2023/01/08 11:51:35;;;;;;;1.50;1.33;;;9.80;99.90;;;;;;6221135;23;20163;-84
2023/01/08 11:54:05;;;;;;;1.10;0.60;;;9.80;99.90;;;;;;6222332;23;20522;-84
2023/01/08 11:57:11;;;;;;;1.52;1.00;;;9.80;99.90;;;;;;6222415;23;20146;-83
2023/01/08 11:59:58;;;;;;;2.88;1.30;;;9.80;99.90;;;;;;6223644;23;20165;-84
2023/01/08 12:02:38;;;;;;;2.00;1.25;;;9.90;99.90;;;;;;6222615;23;20176;-83
2023/01/08 12:05:26;;;;;;;2.25;1.35;;;9.90;99.90;;;;;;6224225;23;20160;-84
2023/01/08 12:08:05;;;;;;;3.80;2.67;;;9.90;99.90;;;;;;6218562;23;20148;-82
2023/01/08 12:10:51;;;;;;;4.20;3.13;;;9.90;99.90;;;;;;6219791;23;20145;-83
2023/01/08 12:13:45;;;;;;;1.77;1.10;;;10.00;99.90;;;;;;6218520;23;20173;-83
2023/01/08 12:16:43;;;;;;;1.02;0.60;;;10.10;99.90;;;;;;6217109;23;20191;-84
2023/01/08 12:19:42;;;;;;;2.42;1.40;;;10.20;99.90;;;;;;6217121;23;20167;-84
2023/01/08 12:22:27;;;;;;;1.48;1.00;;;10.10;99.90;;;;;;6218247;23;20184;-83
2023/01/08 12:24:58;;;;;;;2.35;1.27;;;10.00;99.90;;;;;;6216994;23;20203;-84
2023/01/08 12:28:01;;;;;;;2.53;1.25;;;10.10;99.90;;;;;;6218505;23;20200;-84
2023/01/08 12:30:50;;;;;;;1.35;1.25;;;10.30;99.90;;;;;;6220628;23;20137;-84
2023/01/08 12:33:35;;;;;;;3.70;1.00;;;10.50;99.90;;;;;;6219130;23;20180;-82
2023/01/08 12:36:07;;;;;;;1.40;1.00;;;10.50;99.90;;;;;;6220160;23;20145;-83
2023/01/08 12:38:36;;;;;;;1.23;1.13;;;10.50;99.90;;;;;;6221587;23;20600;-84
2023/01/08 12:41:15;;;;;;;1.10;0.98;;;10.40;99.90;;;;;;6219648;23;20181;-83
2023/01/08 12:43:55;;;;;;;1.55;1.10;;;10.40;99.90;;;;;;6219207;23;20185;-83
2023/01/08 12:46:23;;;;;;;2.75;1.60;;;10.40;99.90;;;;;;6220120;23;20476;-83
2023/01/08 12:48:52;;;;;;;1.70;1.05;;;10.60;99.90;;;;;;6219277;23;20159;-84
2023/01/08 12:51:18;;;;;;;0.55;0.55;;;10.60;99.90;;;;;;6221834;23;20265;-83
2023/01/08 12:54:01;;;;;;;0.80;0.60;;;10.60;99.90;;;;;;6220250;23;20177;-82
2023/01/08 12:56:33;;;;;;;0.75;0.68;;;10.40;99.90;;;;;;6219290;23;20138;-85
2023/01/08 12:59:17;;;;;;;0.88;0.75;;;10.40;99.90;;;;;;6218835;23;20215;-82
2023/01/08 13:01:53;;;;;;;1.00;0.80;;;10.30;99.90;;;;;;6218583;23;20180;-84
2023/01/08 13:04:19;;;;;;;1.25;1.08;;;10.30;99.90;;;;;;6218652;23;20177;-84
2023/01/08 13:06:54;;;;;;;0.87;0.73;;;10.40;99.90;;;;;;6220259;23;20225;-82